sensor_id;sensor_type;location;lat;lon;timestamp;temperature;humidity
6210;DHT22;3138;52.550;13.148;2022-09-21T00:01:22;4.80;99.90
6210;DHT22;3138;52.550;13.148;2022-09-21T00:03:52;4.70;99.90
6210;DHT22;3138;52.550;13.148;2022-09-21T00:06:20;4.80;99.90
6210;DHT22;3138;52.550;13.148;2022-09-21T00:08:48;4.70;99.90
6210;DHT22;3138;52.550;13.148;2022-09-21T00:11:17;4.70;99.90
6210;DHT22;3138;52.550;13.148;2022-09-21T00:13:46;4.80;99.90
6210;DHT22;3138;52.550;13.148;2022-09-21T00:16:14;4.60;99.90
6210;DHT22;3138;52.550;13.148;2022-09-21T00:18:41;4.60;99.90
6210;DHT22;3138;52.550;13.148;2022-09-21T00:21:10;4.60;99.90
6210;DHT22;3138;52.550;13.148;2022-09-21T00:23:37;4.50;99.90
6210;DHT22;3138;52.550;13.148;2022-09-21T00:26:07;4.60;99.90
6210;DHT22;3138;52.550;13.148;2022-09-21T00:28:34;4.50;99.90
6210;DHT22;3138;52.550;13.148;2022-09-21T00:31:02;4.50;99.90
6210;DHT22;3138;52.550;13.148;2022-09-21T00:33:29;4.50;99.90
6210;DHT22;3138;52.550;13.148;2022-09-21T00:36:01;4.50;99.90
6210;DHT22;3138;52.550;13.148;2022-09-21T00:38:29;4.40;99.90
6210;DHT22;3138;52.550;13.148;2022-09-21T00:40:55;4.40;99.90
6210;DHT22;3138;52.550;13.148;2022-09-21T00:43:23;4.50;99.90
6210;DHT22;3138;52.550;13.148;2022-09-21T00:45:56;4.40;99.90
6210;DHT22;3138;52.550;13.148;2022-09-21T00:48:25;4.40;99.90
6210;DHT22;3138;52.550;13.148;2022-09-21T00:50:53;4.50;99.90
6210;DHT22;3138;52.550;13.148;2022-09-21T00:53:22;4.50;99.90
6210;DHT22;3138;52.550;13.148;2022-09-21T00:55:51;4.40;99.90
6210;DHT22;3138;52.550;13.148;2022-09-21T00:58:23;4.40;99.90
6210;DHT22;3138;52.550;13.148;2022-09-21T01:00:52;4.30;99.90
6210;DHT22;3138;52.550;13.148;2022-09-21T01:03:19;4.30;99.90
6210;DHT22;3138;52.550;13.148;2022-09-21T01:05:45;4.30;99.90
6210;DHT22;3138;52.550;13.148;2022-09-21T01:08:13;4.30;99.90
6210;DHT22;3138;52.550;13.148;2022-09-21T01:10:50;4.30;99.90
6210;DHT22;3138;52.550;13.148;2022-09-21T01:13:28;4.20;99.90
6210;DHT22;3138;52.550;13.148;2022-09-21T01:16:04;4.20;99.90
6210;DHT22;3138;52.550;13.148;2022-09-21T01:18:37;4.20;99.90
6210;DHT22;3138;52.550;13.148;2022-09-21T01:21:21;4.20;99.90
6210;DHT22;3138;52.550;13.148;2022-09-21T01:24:14;4.20;99.90
6210;DHT22;3138;52.550;13.148;2022-09-21T01:27:06;4.20;99.90
6210;DHT22;3138;52.550;13.148;2022-09-21T01:29:41;4.20;99.90
6210;DHT22;3138;52.550;13.148;2022-09-21T01:32:12;4.30;99.90
6210;DHT22;3138;52.550;13.148;2022-09-21T01:34:45;4.10;99.90
6210;DHT22;3138;52.550;13.148;2022-09-21T01:37:17;4.00;99.90
6210;DHT22;3138;52.550;13.148;2022-09-21T01:39:48;4.00;99.90
6210;DHT22;3138;52.550;13.148;2022-09-21T01:42:16;4.00;99.90
6210;DHT22;3138;52.550;13.148;2022-09-21T01:44:47;4.00;99.90
6210;DHT22;3138;52.550;13.148;2022-09-21T01:47:16;4.10;99.90
6210;DHT22;3138;52.550;13.148;2022-09-21T01:49:46;3.90;99.90
6210;DHT22;3138;52.550;13.148;2022-09-21T01:52:19;3.90;99.90
6210;DHT22;3138;52.550;13.148;2022-09-21T01:54:49;3.80;99.90
6210;DHT22;3138;52.550;13.148;2022-09-21T01:57:25;3.90;99.90
6210;DHT22;3138;52.550;13.148;2022-09-21T01:59:56;3.80;99.90
6210;DHT22;3138;52.550;13.148;2022-09-21T02:02:28;3.90;99.90
6210;DHT22;3138;52.550;13.148;2022-09-21T02:04:58;3.80;99.90
6210;DHT22;3138;52.550;13.148;2022-09-21T02:07:25;3.90;99.90
6210;DHT22;3138;52.550;13.148;2022-09-21T02:09:52;3.80;99.90
6210;DHT22;3138;52.550;13.148;2022-09-21T02:12:20;3.90;99.90
6210;DHT22;3138;52.550;13.148;2022-09-21T02:14:48;3.90;99.90
6210;DHT22;3138;52.550;13.148;2022-09-21T02:17:31;3.80;99.90
6210;DHT22;3138;52.550;13.148;2022-09-21T02:20:06;3.90;99.90
6210;DHT22;3138;52.550;13.148;2022-09-21T02:22:40;3.90;99.90
6210;DHT22;3138;52.550;13.148;2022-09-21T02:25:15;3.90;99.90
6210;DHT22;3138;52.550;13.148;2022-09-21T02:27:51;3.90;99.90
6210;DHT22;3138;52.550;13.148;2022-09-21T02:30:20;3.90;99.90
6210;DHT22;3138;52.550;13.148;2022-09-21T02:32:53;3.90;99.90
6210;DHT22;3138;52.550;13.148;2022-09-21T02:35:28;4.00;99.90
6210;DHT22;3138;52.550;13.148;2022-09-21T02:38:06;3.90;99.90
6210;DHT22;3138;52.550;13.148;2022-09-21T02:40:37;3.90;99.90
6210;DHT22;3138;52.550;13.148;2022-09-21T02:43:09;3.90;99.90
6210;DHT22;3138;52.550;13.148;2022-09-21T02:45:41;3.80;99.90
6210;DHT22;3138;52.550;13.148;2022-09-21T02:48:13;3.80;99.90
6210;DHT22;3138;52.550;13.148;2022-09-21T02:50:46;3.70;99.90
6210;DHT22;3138;52.550;13.148;2022-09-21T02:53:18;3.80;99.90
6210;DHT22;3138;52.550;13.148;2022-09-21T02:55:46;3.70;99.90
6210;DHT22;3138;52.550;13.148;2022-09-21T02:58:16;3.70;99.90
6210;DHT22;3138;52.550;13.148;2022-09-21T03:00:46;3.60;99.90
6210;DHT22;3138;52.550;13.148;2022-09-21T03:03:19;3.50;99.90
6210;DHT22;3138;52.550;13.148;2022-09-21T03:05:48;3.50;99.90
6210;DHT22;3138;52.550;13.148;2022-09-21T03:08:15;3.60;99.90
6210;DHT22;3138;52.550;13.148;2022-09-21T03:10:42;3.50;99.90
6210;DHT22;3138;52.550;13.148;2022-09-21T03:13:09;3.50;99.90
6210;DHT22;3138;52.550;13.148;2022-09-21T03:15:36;3.60;99.90
6210;DHT22;3138;52.550;13.148;2022-09-21T03:18:03;3.50;99.90
6210;DHT22;3138;52.550;13.148;2022-09-21T03:20:32;3.50;99.90
6210;DHT22;3138;52.550;13.148;2022-09-21T03:22:59;3.50;99.90
6210;DHT22;3138;52.550;13.148;2022-09-21T03:25:26;3.50;99.90
6210;DHT22;3138;52.550;13.148;2022-09-21T03:27:53;3.60;99.90
6210;DHT22;3138;52.550;13.148;2022-09-21T03:30:20;3.60;99.90
6210;DHT22;3138;52.550;13.148;2022-09-21T03:32:47;3.60;99.90
6210;DHT22;3138;52.550;13.148;2022-09-21T03:35:14;3.50;99.90
6210;DHT22;3138;52.550;13.148;2022-09-21T03:37:43;3.60;99.90
6210;DHT22;3138;52.550;13.148;2022-09-21T03:40:10;3.50;99.90
6210;DHT22;3138;52.550;13.148;2022-09-21T03:42:37;3.60;99.90
6210;DHT22;3138;52.550;13.148;2022-09-21T03:45:05;3.60;99.90
6210;DHT22;3138;52.550;13.148;2022-09-21T03:47:32;3.60;99.90
6210;DHT22;3138;52.550;13.148;2022-09-21T03:49:59;3.60;99.90
6210;DHT22;3138;52.550;13.148;2022-09-21T03:52:26;3.60;99.90
6210;DHT22;3138;52.550;13.148;2022-09-21T03:54:54;3.60;99.90
6210;DHT22;3138;52.550;13.148;2022-09-21T03:57:21;3.50;99.90
6210;DHT22;3138;52.550;13.148;2022-09-21T03:59:48;3.50;99.90
6210;DHT22;3138;52.550;13.148;2022-09-21T04:02:14;3.40;99.90
6210;DHT22;3138;52.550;13.148;2022-09-21T04:04:41;3.40;99.90
6210;DHT22;3138;52.550;13.148;2022-09-21T04:07:08;3.40;99.90
6210;DHT22;3138;52.550;13.148;2022-09-21T04:09:35;3.40;99.90
6210;DHT22;3138;52.550;13.148;2022-09-21T04:12:03;3.30;99.90
6210;DHT22;3138;52.550;13.148;2022-09-21T04:14:30;3.30;99.90
6210;DHT22;3138;52.550;13.148;2022-09-21T04:16:57;3.30;99.90
6210;DHT22;3138;52.550;13.148;2022-09-21T04:19:24;3.30;99.90
6210;DHT22;3138;52.550;13.148;2022-09-21T04:21:50;3.30;99.90
6210;DHT22;3138;52.550;13.148;2022-09-21T04:24:17;3.40;99.90
6210;DHT22;3138;52.550;13.148;2022-09-21T04:26:45;3.40;99.90
6210;DHT22;3138;52.550;13.148;2022-09-21T04:29:14;3.30;99.90
6210;DHT22;3138;52.550;13.148;2022-09-21T04:31:41;3.20;99.90
6210;DHT22;3138;52.550;13.148;2022-09-21T04:34:11;3.30;99.90
6210;DHT22;3138;52.550;13.148;2022-09-21T04:36:38;3.30;99.90
6210;DHT22;3138;52.550;13.148;2022-09-21T04:39:05;3.30;99.90
6210;DHT22;3138;52.550;13.148;2022-09-21T04:41:32;3.30;99.90
6210;DHT22;3138;52.550;13.148;2022-09-21T04:43:59;3.20;99.90
6210;DHT22;3138;52.550;13.148;2022-09-21T04:46:28;3.30;99.90
6210;DHT22;3138;52.550;13.148;2022-09-21T04:48:54;3.30;99.90
6210;DHT22;3138;52.550;13.148;2022-09-21T04:51:23;3.30;99.90
6210;DHT22;3138;52.550;13.148;2022-09-21T04:53:49;3.40;99.90
6210;DHT22;3138;52.550;13.148;2022-09-21T04:56:16;3.30;99.90
6210;DHT22;3138;52.550;13.148;2022-09-21T04:58:44;3.30;99.90
6210;DHT22;3138;52.550;13.148;2022-09-21T05:01:11;3.40;99.90
6210;DHT22;3138;52.550;13.148;2022-09-21T05:03:39;3.40;99.90
6210;DHT22;3138;52.550;13.148;2022-09-21T05:06:05;3.40;99.90
6210;DHT22;3138;52.550;13.148;2022-09-21T05:08:33;3.60;99.90
6210;DHT22;3138;52.550;13.148;2022-09-21T05:11:18;3.60;99.90
6210;DHT22;3138;52.550;13.148;2022-09-21T05:13:45;3.50;99.90
6210;DHT22;3138;52.550;13.148;2022-09-21T05:16:12;3.60;99.90
6210;DHT22;3138;52.550;13.148;2022-09-21T05:18:40;3.70;99.90
6210;DHT22;3138;52.550;13.148;2022-09-21T05:21:08;3.70;99.90
6210;DHT22;3138;52.550;13.148;2022-09-21T05:23:36;3.70;99.90
6210;DHT22;3138;52.550;13.148;2022-09-21T05:26:04;3.70;99.90
6210;DHT22;3138;52.550;13.148;2022-09-21T05:28:31;3.80;99.90
6210;DHT22;3138;52.550;13.148;2022-09-21T05:31:02;3.80;99.90
6210;DHT22;3138;52.550;13.148;2022-09-21T05:33:31;3.90;99.90
6210;DHT22;3138;52.550;13.148;2022-09-21T05:36:08;3.90;99.90
6210;DHT22;3138;52.550;13.148;2022-09-21T05:38:36;4.10;99.90
6210;DHT22;3138;52.550;13.148;2022-09-21T05:41:03;4.30;99.90
6210;DHT22;3138;52.550;13.148;2022-09-21T05:43:30;4.40;99.90
6210;DHT22;3138;52.550;13.148;2022-09-21T05:46:02;4.70;99.90
6210;DHT22;3138;52.550;13.148;2022-09-21T05:48:36;4.80;99.90
6210;DHT22;3138;52.550;13.148;2022-09-21T05:51:12;5.00;99.90
6210;DHT22;3138;52.550;13.148;2022-09-21T05:53:49;5.10;99.90
6210;DHT22;3138;52.550;13.148;2022-09-21T05:56:35;5.20;99.90
6210;DHT22;3138;52.550;13.148;2022-09-21T05:59:17;5.30;99.90
6210;DHT22;3138;52.550;13.148;2022-09-21T06:01:58;5.60;99.90
6210;DHT22;3138;52.550;13.148;2022-09-21T06:04:29;5.90;99.90
6210;DHT22;3138;52.550;13.148;2022-09-21T06:06:57;6.10;99.90
6210;DHT22;3138;52.550;13.148;2022-09-21T06:09:24;6.30;99.90
6210;DHT22;3138;52.550;13.148;2022-09-21T06:11:52;6.50;99.90
6210;DHT22;3138;52.550;13.148;2022-09-21T06:14:19;6.80;99.90
6210;DHT22;3138;52.550;13.148;2022-09-21T06:16:50;7.00;99.90
6210;DHT22;3138;52.550;13.148;2022-09-21T06:19:17;7.20;99.90
6210;DHT22;3138;52.550;13.148;2022-09-21T06:21:44;7.20;99.90
6210;DHT22;3138;52.550;13.148;2022-09-21T06:24:12;7.30;99.90
6210;DHT22;3138;52.550;13.148;2022-09-21T06:26:39;7.40;99.90
6210;DHT22;3138;52.550;13.148;2022-09-21T06:29:06;7.40;99.90
6210;DHT22;3138;52.550;13.148;2022-09-21T06:31:32;7.50;99.90
6210;DHT22;3138;52.550;13.148;2022-09-21T06:33:59;7.50;99.90
6210;DHT22;3138;52.550;13.148;2022-09-21T06:36:26;7.60;99.90
6210;DHT22;3138;52.550;13.148;2022-09-21T06:38:53;7.70;99.90
6210;DHT22;3138;52.550;13.148;2022-09-21T06:41:21;7.80;99.90
6210;DHT22;3138;52.550;13.148;2022-09-21T06:43:48;7.80;99.90
6210;DHT22;3138;52.550;13.148;2022-09-21T06:46:14;7.90;99.90
6210;DHT22;3138;52.550;13.148;2022-09-21T06:48:41;8.00;99.90
6210;DHT22;3138;52.550;13.148;2022-09-21T06:51:08;7.90;99.90
6210;DHT22;3138;52.550;13.148;2022-09-21T06:53:35;8.00;99.90
6210;DHT22;3138;52.550;13.148;2022-09-21T06:56:03;8.10;99.90
6210;DHT22;3138;52.550;13.148;2022-09-21T06:58:32;8.20;99.90
6210;DHT22;3138;52.550;13.148;2022-09-21T07:01:03;8.30;99.90
6210;DHT22;3138;52.550;13.148;2022-09-21T07:03:30;8.30;99.90
6210;DHT22;3138;52.550;13.148;2022-09-21T07:05:57;8.50;99.90
6210;DHT22;3138;52.550;13.148;2022-09-21T07:08:24;8.60;99.90
6210;DHT22;3138;52.550;13.148;2022-09-21T07:10:50;8.50;99.90
6210;DHT22;3138;52.550;13.148;2022-09-21T07:13:17;8.60;99.90
6210;DHT22;3138;52.550;13.148;2022-09-21T07:15:45;8.60;99.90
6210;DHT22;3138;52.550;13.148;2022-09-21T07:18:12;8.70;99.90
6210;DHT22;3138;52.550;13.148;2022-09-21T07:20:40;8.70;99.90
6210;DHT22;3138;52.550;13.148;2022-09-21T07:23:10;8.60;99.90
6210;DHT22;3138;52.550;13.148;2022-09-21T07:25:39;8.60;99.90
6210;DHT22;3138;52.550;13.148;2022-09-21T07:28:05;8.60;99.90
6210;DHT22;3138;52.550;13.148;2022-09-21T07:30:32;8.70;99.90
6210;DHT22;3138;52.550;13.148;2022-09-21T07:33:00;8.60;99.90
6210;DHT22;3138;52.550;13.148;2022-09-21T07:35:27;8.70;99.90
6210;DHT22;3138;52.550;13.148;2022-09-21T07:37:57;8.80;99.90
6210;DHT22;3138;52.550;13.148;2022-09-21T07:40:23;8.80;99.90
6210;DHT22;3138;52.550;13.148;2022-09-21T07:42:50;8.90;99.90
6210;DHT22;3138;52.550;13.148;2022-09-21T07:45:17;9.10;99.90
6210;DHT22;3138;52.550;13.148;2022-09-21T07:47:43;9.30;99.90
6210;DHT22;3138;52.550;13.148;2022-09-21T07:50:12;9.70;99.90
6210;DHT22;3138;52.550;13.148;2022-09-21T07:52:39;10.10;99.90
6210;DHT22;3138;52.550;13.148;2022-09-21T07:55:06;10.30;99.90
6210;DHT22;3138;52.550;13.148;2022-09-21T07:57:32;10.40;99.90
6210;DHT22;3138;52.550;13.148;2022-09-21T08:00:17;10.50;99.90
6210;DHT22;3138;52.550;13.148;2022-09-21T08:02:44;10.80;99.90
6210;DHT22;3138;52.550;13.148;2022-09-21T08:05:12;10.80;99.90
6210;DHT22;3138;52.550;13.148;2022-09-21T08:07:39;10.80;99.90
6210;DHT22;3138;52.550;13.148;2022-09-21T08:10:06;10.70;99.90
6210;DHT22;3138;52.550;13.148;2022-09-21T08:12:33;10.70;99.90
6210;DHT22;3138;52.550;13.148;2022-09-21T08:15:00;10.80;99.90
6210;DHT22;3138;52.550;13.148;2022-09-21T08:17:27;11.00;99.90
6210;DHT22;3138;52.550;13.148;2022-09-21T08:19:54;11.30;99.90
6210;DHT22;3138;52.550;13.148;2022-09-21T08:22:22;11.50;99.90
6210;DHT22;3138;52.550;13.148;2022-09-21T08:24:50;11.70;99.90
6210;DHT22;3138;52.550;13.148;2022-09-21T08:27:17;11.90;99.90
6210;DHT22;3138;52.550;13.148;2022-09-21T08:29:45;12.20;99.90
6210;DHT22;3138;52.550;13.148;2022-09-21T08:32:11;12.40;99.90
6210;DHT22;3138;52.550;13.148;2022-09-21T08:34:38;12.50;99.90
6210;DHT22;3138;52.550;13.148;2022-09-21T08:37:05;12.70;99.90
6210;DHT22;3138;52.550;13.148;2022-09-21T08:39:33;13.00;99.90
6210;DHT22;3138;52.550;13.148;2022-09-21T08:42:13;13.10;99.90
6210;DHT22;3138;52.550;13.148;2022-09-21T08:44:48;12.90;99.90
6210;DHT22;3138;52.550;13.148;2022-09-21T08:47:20;13.00;99.90
6210;DHT22;3138;52.550;13.148;2022-09-21T08:49:51;13.00;99.90
6210;DHT22;3138;52.550;13.148;2022-09-21T08:52:19;12.90;99.90
6210;DHT22;3138;52.550;13.148;2022-09-21T08:54:54;13.00;99.90
6210;DHT22;3138;52.550;13.148;2022-09-21T08:57:31;13.10;99.90
6210;DHT22;3138;52.550;13.148;2022-09-21T08:59:59;13.30;99.90
6210;DHT22;3138;52.550;13.148;2022-09-21T09:02:37;13.50;99.90
6210;DHT22;3138;52.550;13.148;2022-09-21T09:05:16;13.50;99.90
6210;DHT22;3138;52.550;13.148;2022-09-21T09:07:58;13.70;99.90
6210;DHT22;3138;52.550;13.148;2022-09-21T09:10:36;13.90;99.90
6210;DHT22;3138;52.550;13.148;2022-09-21T09:13:16;14.30;99.90
6210;DHT22;3138;52.550;13.148;2022-09-21T09:15:56;14.40;99.90
6210;DHT22;3138;52.550;13.148;2022-09-21T09:18:32;14.40;99.90
6210;DHT22;3138;52.550;13.148;2022-09-21T09:21:04;14.80;99.90
6210;DHT22;3138;52.550;13.148;2022-09-21T09:23:35;14.80;99.90
6210;DHT22;3138;52.550;13.148;2022-09-21T09:26:08;14.80;99.90
6210;DHT22;3138;52.550;13.148;2022-09-21T09:28:40;14.80;99.90
6210;DHT22;3138;52.550;13.148;2022-09-21T09:31:15;15.00;99.90
6210;DHT22;3138;52.550;13.148;2022-09-21T09:33:50;15.20;99.90
6210;DHT22;3138;52.550;13.148;2022-09-21T09:36:18;15.20;99.90
6210;DHT22;3138;52.550;13.148;2022-09-21T09:38:55;15.10;99.90
6210;DHT22;3138;52.550;13.148;2022-09-21T09:41:42;15.30;99.90
6210;DHT22;3138;52.550;13.148;2022-09-21T09:44:24;15.50;99.90
6210;DHT22;3138;52.550;13.148;2022-09-21T09:47:01;15.70;99.90
6210;DHT22;3138;52.550;13.148;2022-09-21T09:49:39;15.40;99.90
6210;DHT22;3138;52.550;13.148;2022-09-21T09:52:12;15.50;99.90
6210;DHT22;3138;52.550;13.148;2022-09-21T09:54:41;15.90;99.90
6210;DHT22;3138;52.550;13.148;2022-09-21T09:57:10;15.70;99.90
6210;DHT22;3138;52.550;13.148;2022-09-21T09:59:42;15.40;99.90
6210;DHT22;3138;52.550;13.148;2022-09-21T10:02:19;15.20;99.90
6210;DHT22;3138;52.550;13.148;2022-09-21T10:04:54;14.90;99.90
6210;DHT22;3138;52.550;13.148;2022-09-21T10:07:36;14.90;99.90
6210;DHT22;3138;52.550;13.148;2022-09-21T10:10:31;14.80;99.90
6210;DHT22;3138;52.550;13.148;2022-09-21T10:13:05;14.90;99.90
6210;DHT22;3138;52.550;13.148;2022-09-21T10:15:41;14.90;99.90
6210;DHT22;3138;52.550;13.148;2022-09-21T10:18:16;14.90;99.90
6210;DHT22;3138;52.550;13.148;2022-09-21T10:20:55;15.10;99.90
6210;DHT22;3138;52.550;13.148;2022-09-21T10:23:23;15.00;99.90
6210;DHT22;3138;52.550;13.148;2022-09-21T10:25:56;15.10;99.90
6210;DHT22;3138;52.550;13.148;2022-09-21T10:28:25;15.10;99.90
6210;DHT22;3138;52.550;13.148;2022-09-21T10:31:08;15.00;99.90
6210;DHT22;3138;52.550;13.148;2022-09-21T10:33:45;14.90;99.90
6210;DHT22;3138;52.550;13.148;2022-09-21T10:36:31;15.10;99.90
6210;DHT22;3138;52.550;13.148;2022-09-21T10:39:26;15.30;99.90
6210;DHT22;3138;52.550;13.148;2022-09-21T10:41:59;16.10;99.90
6210;DHT22;3138;52.550;13.148;2022-09-21T10:44:35;16.60;99.90
6210;DHT22;3138;52.550;13.148;2022-09-21T10:47:15;16.60;99.90
6210;DHT22;3138;52.550;13.148;2022-09-21T10:49:44;16.60;99.90
6210;DHT22;3138;52.550;13.148;2022-09-21T10:52:13;16.40;99.90
6210;DHT22;3138;52.550;13.148;2022-09-21T10:54:41;16.10;99.90
6210;DHT22;3138;52.550;13.148;2022-09-21T10:57:13;15.70;99.90
6210;DHT22;3138;52.550;13.148;2022-09-21T10:59:43;15.40;99.90
6210;DHT22;3138;52.550;13.148;2022-09-21T11:05:14;15.60;99.90
6210;DHT22;3138;52.550;13.148;2022-09-21T11:07:46;16.00;99.90
6210;DHT22;3138;52.550;13.148;2022-09-21T11:10:20;16.60;99.90
6210;DHT22;3138;52.550;13.148;2022-09-21T11:12:59;16.90;97.30
6210;DHT22;3138;52.550;13.148;2022-09-21T11:15:41;17.30;97.70
6210;DHT22;3138;52.550;13.148;2022-09-21T11:18:17;17.20;93.10
6210;DHT22;3138;52.550;13.148;2022-09-21T11:20:48;17.20;93.00
6210;DHT22;3138;52.550;13.148;2022-09-21T11:23:25;17.00;93.80
6210;DHT22;3138;52.550;13.148;2022-09-21T11:26:02;16.90;95.40
6210;DHT22;3138;52.550;13.148;2022-09-21T11:28:33;16.40;95.00
6210;DHT22;3138;52.550;13.148;2022-09-21T11:31:15;16.30;94.90
6210;DHT22;3138;52.550;13.148;2022-09-21T11:34:05;16.10;94.50
6210;DHT22;3138;52.550;13.148;2022-09-21T11:36:41;15.90;96.10
6210;DHT22;3138;52.550;13.148;2022-09-21T11:39:19;16.30;97.10
6210;DHT22;3138;52.550;13.148;2022-09-21T11:41:58;17.00;96.10
6210;DHT22;3138;52.550;13.148;2022-09-21T11:44:41;17.40;89.50
6210;DHT22;3138;52.550;13.148;2022-09-21T11:47:27;17.70;91.30
6210;DHT22;3138;52.550;13.148;2022-09-21T11:50:11;17.90;91.30
6210;DHT22;3138;52.550;13.148;2022-09-21T11:52:51;18.00;84.50
6210;DHT22;3138;52.550;13.148;2022-09-21T11:58:29;17.30;90.80
6210;DHT22;3138;52.550;13.148;2022-09-21T12:01:04;16.90;89.70
6210;DHT22;3138;52.550;13.148;2022-09-21T12:03:47;16.40;90.20
6210;DHT22;3138;52.550;13.148;2022-09-21T12:06:36;16.10;90.90
6210;DHT22;3138;52.550;13.148;2022-09-21T12:09:20;16.00;90.40
6210;DHT22;3138;52.550;13.148;2022-09-21T12:11:53;15.70;90.70
6210;DHT22;3138;52.550;13.148;2022-09-21T12:14:29;15.70;92.00
6210;DHT22;3138;52.550;13.148;2022-09-21T12:17:01;15.50;93.30
6210;DHT22;3138;52.550;13.148;2022-09-21T12:19:36;15.40;94.20
6210;DHT22;3138;52.550;13.148;2022-09-21T12:22:09;15.30;95.80
6210;DHT22;3138;52.550;13.148;2022-09-21T12:24:41;15.60;95.60
6210;DHT22;3138;52.550;13.148;2022-09-21T12:27:15;16.10;93.80
6210;DHT22;3138;52.550;13.148;2022-09-21T12:29:46;16.30;91.80
6210;DHT22;3138;52.550;13.148;2022-09-21T12:32:21;16.60;93.60
6210;DHT22;3138;52.550;13.148;2022-09-21T12:34:53;16.70;92.50
6210;DHT22;3138;52.550;13.148;2022-09-21T12:37:25;16.90;89.10
6210;DHT22;3138;52.550;13.148;2022-09-21T12:39:59;16.90;80.10
6210;DHT22;3138;52.550;13.148;2022-09-21T12:42:30;16.90;81.00
6210;DHT22;3138;52.550;13.148;2022-09-21T12:45:03;17.10;79.40
6210;DHT22;3138;52.550;13.148;2022-09-21T12:47:48;17.10;81.50
6210;DHT22;3138;52.550;13.148;2022-09-21T12:50:24;17.40;79.00
6210;DHT22;3138;52.550;13.148;2022-09-21T12:52:54;17.20;73.90
6210;DHT22;3138;52.550;13.148;2022-09-21T12:55:32;17.50;77.30
6210;DHT22;3138;52.550;13.148;2022-09-21T12:58:04;17.70;74.80
6210;DHT22;3138;52.550;13.148;2022-09-21T13:00:37;17.50;72.40
6210;DHT22;3138;52.550;13.148;2022-09-21T13:03:12;17.20;72.20
6210;DHT22;3138;52.550;13.148;2022-09-21T13:06:03;17.20;74.80
6210;DHT22;3138;52.550;13.148;2022-09-21T13:08:36;17.00;77.10
6210;DHT22;3138;52.550;13.148;2022-09-21T13:11:05;16.60;78.20
6210;DHT22;3138;52.550;13.148;2022-09-21T13:13:35;16.20;80.10
6210;DHT22;3138;52.550;13.148;2022-09-21T13:16:04;16.10;81.10
6210;DHT22;3138;52.550;13.148;2022-09-21T13:18:34;16.00;81.10
6210;DHT22;3138;52.550;13.148;2022-09-21T13:21:14;16.00;83.90
6210;DHT22;3138;52.550;13.148;2022-09-21T13:23:41;15.90;85.00
6210;DHT22;3138;52.550;13.148;2022-09-21T13:26:10;15.90;86.90
6210;DHT22;3138;52.550;13.148;2022-09-21T13:28:59;15.80;86.00
6210;DHT22;3138;52.550;13.148;2022-09-21T13:31:52;15.60;86.40
6210;DHT22;3138;52.550;13.148;2022-09-21T13:34:30;15.60;86.60
6210;DHT22;3138;52.550;13.148;2022-09-21T13:37:25;15.50;87.30
6210;DHT22;3138;52.550;13.148;2022-09-21T13:43:44;16.30;83.90
6210;DHT22;3138;52.550;13.148;2022-09-21T13:46:53;16.60;78.60
6210;DHT22;3138;52.550;13.148;2022-09-21T13:49:40;17.00;80.10
6210;DHT22;3138;52.550;13.148;2022-09-21T13:52:26;16.90;70.90
6210;DHT22;3138;52.550;13.148;2022-09-21T13:54:57;17.00;71.50
6210;DHT22;3138;52.550;13.148;2022-09-21T13:57:30;16.90;69.00
6210;DHT22;3138;52.550;13.148;2022-09-21T14:00:31;17.10;72.30
6210;DHT22;3138;52.550;13.148;2022-09-21T14:03:01;17.30;71.30
6210;DHT22;3138;52.550;13.148;2022-09-21T14:05:33;17.40;66.80
6210;DHT22;3138;52.550;13.148;2022-09-21T14:08:04;17.40;70.10
6210;DHT22;3138;52.550;13.148;2022-09-21T14:10:33;17.30;67.80
6210;DHT22;3138;52.550;13.148;2022-09-21T14:13:02;17.30;68.10
6210;DHT22;3138;52.550;13.148;2022-09-21T14:15:35;17.30;68.40
6210;DHT22;3138;52.550;13.148;2022-09-21T14:21:12;17.40;68.70
6210;DHT22;3138;52.550;13.148;2022-09-21T14:24:16;17.60;69.00
6210;DHT22;3138;52.550;13.148;2022-09-21T14:26:50;17.10;68.30
6210;DHT22;3138;52.550;13.148;2022-09-21T14:29:20;16.80;69.80
6210;DHT22;3138;52.550;13.148;2022-09-21T14:31:48;16.50;69.60
6210;DHT22;3138;52.550;13.148;2022-09-21T14:34:20;16.30;71.10
6210;DHT22;3138;52.550;13.148;2022-09-21T14:36:52;16.10;74.20
6210;DHT22;3138;52.550;13.148;2022-09-21T14:39:23;16.10;75.80
6210;DHT22;3138;52.550;13.148;2022-09-21T14:41:54;16.00;76.60
6210;DHT22;3138;52.550;13.148;2022-09-21T14:44:28;15.90;76.70
6210;DHT22;3138;52.550;13.148;2022-09-21T14:47:27;15.90;79.00
6210;DHT22;3138;52.550;13.148;2022-09-21T14:50:19;15.80;79.10
6210;DHT22;3138;52.550;13.148;2022-09-21T14:53:18;15.70;81.40
6210;DHT22;3138;52.550;13.148;2022-09-21T14:56:10;15.80;81.30
6210;DHT22;3138;52.550;13.148;2022-09-21T14:58:52;16.10;79.00
6210;DHT22;3138;52.550;13.148;2022-09-21T15:01:35;16.20;76.60
6210;DHT22;3138;52.550;13.148;2022-09-21T15:04:31;16.60;78.10
6210;DHT22;3138;52.550;13.148;2022-09-21T15:07:12;16.80;74.40
6210;DHT22;3138;52.550;13.148;2022-09-21T15:10:22;16.70;72.00
6210;DHT22;3138;52.550;13.148;2022-09-21T15:13:16;16.50;72.70
6210;DHT22;3138;52.550;13.148;2022-09-21T15:15:50;16.50;71.20
6210;DHT22;3138;52.550;13.148;2022-09-21T15:18:22;16.50;70.30
6210;DHT22;3138;52.550;13.148;2022-09-21T15:20:58;16.40;70.30
6210;DHT22;3138;52.550;13.148;2022-09-21T15:23:30;16.40;70.60
6210;DHT22;3138;52.550;13.148;2022-09-21T15:26:00;16.30;72.00
6210;DHT22;3138;52.550;13.148;2022-09-21T15:28:33;16.30;73.10
6210;DHT22;3138;52.550;13.148;2022-09-21T15:31:00;16.40;69.40
6210;DHT22;3138;52.550;13.148;2022-09-21T15:33:28;16.20;65.60
6210;DHT22;3138;52.550;13.148;2022-09-21T15:35:59;16.20;66.30
6210;DHT22;3138;52.550;13.148;2022-09-21T15:38:28;16.10;66.90
6210;DHT22;3138;52.550;13.148;2022-09-21T15:40:56;16.10;67.20
6210;DHT22;3138;52.550;13.148;2022-09-21T15:43:23;16.00;66.40
6210;DHT22;3138;52.550;13.148;2022-09-21T15:45:53;16.00;66.90
6210;DHT22;3138;52.550;13.148;2022-09-21T15:48:21;15.80;67.00
6210;DHT22;3138;52.550;13.148;2022-09-21T15:50:51;15.90;66.70
6210;DHT22;3138;52.550;13.148;2022-09-21T15:53:20;15.80;67.00
6210;DHT22;3138;52.550;13.148;2022-09-21T15:55:49;15.70;67.90
6210;DHT22;3138;52.550;13.148;2022-09-21T15:58:24;15.60;68.80
6210;DHT22;3138;52.550;13.148;2022-09-21T16:00:54;15.70;68.80
6210;DHT22;3138;52.550;13.148;2022-09-21T16:03:23;15.60;69.10
6210;DHT22;3138;52.550;13.148;2022-09-21T16:05:52;15.50;69.70
6210;DHT22;3138;52.550;13.148;2022-09-21T16:08:27;15.50;71.50
6210;DHT22;3138;52.550;13.148;2022-09-21T16:11:14;15.40;72.00
6210;DHT22;3138;52.550;13.148;2022-09-21T16:13:41;15.30;72.70
6210;DHT22;3138;52.550;13.148;2022-09-21T16:17:04;15.30;72.30
6210;DHT22;3138;52.550;13.148;2022-09-21T16:19:42;15.20;71.70
6210;DHT22;3138;52.550;13.148;2022-09-21T16:22:10;15.00;74.70
6210;DHT22;3138;52.550;13.148;2022-09-21T16:24:44;15.00;73.40
6210;DHT22;3138;52.550;13.148;2022-09-21T16:27:16;14.90;74.00
6210;DHT22;3138;52.550;13.148;2022-09-21T16:29:44;14.80;75.10
6210;DHT22;3138;52.550;13.148;2022-09-21T16:32:26;14.80;73.50
6210;DHT22;3138;52.550;13.148;2022-09-21T16:35:20;14.80;73.30
6210;DHT22;3138;52.550;13.148;2022-09-21T16:37:49;14.60;75.20
6210;DHT22;3138;52.550;13.148;2022-09-21T16:40:16;14.40;76.00
6210;DHT22;3138;52.550;13.148;2022-09-21T16:42:43;14.40;76.50